Main page
METAR-TAF:

METAR-TAF

Airports :

Naxos Island National Airport

Naxos, Greece

latitude: 37-04-47N, longitude: 025-22-01E, elevation: 3 m

Current weather observation

The report was made 13 hours and 32 minutes ago, at 10:50 UTC
Wind 12 kt from the North with gusts up to 22 kt
Temperature 14°C
Humidity 58%
Pressure 1023 hPa
Visibility 10 km or more
Scattered clouds at a height of 2500 ft

METAR: LGNX 171050Z 36012G22KT 9999 SCT025 14/06 Q1023

Time: 02:22 (00:22 UTC)


TAF: missing

Weather observations and forecasts of more than 4000 airports (METAR and TAF reports).

The available stations are represented by yellow and red dots on the map.

Hover mouse over dot to see the name of the station.

Then click to see weather observations and forecasts.

To change the map : click on the green buttons with a black cross to zoom in, on the green button with a dash to zoom out, or on the green arrows for adjacent maps.


METAR-TAF: